Time;durP1;ratioP1;P1;durP2;ratioP2;P2;SDS_P1;SDS_P2;PMS_P1;PMS_P2;Temp;Humidity;BMP_temperature;BMP_pressure;BME280_temperature;BME280_humidity;BME280_pressure;Samples;Min_cycle;Max_cycle;Signal;HPM_P1;HPM_P2
2023/02/17 00:01:21;;;;;;;;;27.67;19.67;;;;;0.36;95.17;99030.75;4877069;28;102077;-70
2023/02/17 00:03:49;;;;;;;;;24.33;20.33;;;;;0.36;95.11;99030.75;4868173;28;102588;-70
2023/02/17 00:06:20;;;;;;;;;40.00;31.33;;;;;0.38;95.58;99028.78;4866826;28;102494;-71
2023/02/17 00:08:48;;;;;;;;;21.00;18.67;;;;;0.40;95.62;99027.69;4880571;28;104025;-70
2023/02/17 00:11:15;;;;;;;;;33.00;27.67;;;;;0.42;95.64;99028.41;4855160;28;102377;-70
2023/02/17 00:13:42;;;;;;;;;31.33;27.67;;;;;0.47;96.08;99033.34;4876475;28;102054;-70
2023/02/17 00:16:21;;;;;;;;;32.67;27.67;;;;;0.51;95.49;99029.44;4878425;28;102264;-69
2023/02/17 00:18:53;;;;;;;;;30.67;26.67;;;;;0.55;95.43;99019.41;4881004;28;108637;-69
2023/02/17 00:21:22;;;;;;;;;35.67;25.33;;;;;0.59;95.13;99034.97;4854989;28;102720;-68
2023/02/17 00:23:50;;;;;;;;;40.33;27.00;;;;;0.62;94.98;99037.41;4868481;28;102363;-69
2023/02/17 00:26:17;;;;;;;;;30.00;20.67;;;;;0.64;94.54;99035.44;4864679;28;102459;-69
2023/02/17 00:28:45;;;;;;;;;24.00;23.67;;;;;0.65;95.02;99021.16;4873403;28;104081;-71
2023/02/17 00:31:18;;;;;;;;;29.33;24.67;;;;;0.70;94.27;99024.28;4872768;28;102462;-70
2023/02/17 00:33:46;;;;;;;;;39.67;30.67;;;;;0.70;94.67;99024.28;4868409;28;102739;-69
2023/02/17 00:36:18;;;;;;;;;32.67;27.00;;;;;0.72;94.97;99016.19;4871158;28;102531;-70
2023/02/17 00:38:49;;;;;;;;;36.67;29.00;;;;;0.73;95.29;99018.69;4872234;28;103999;-69
2023/02/17 00:41:17;;;;;;;;;41.00;30.67;;;;;0.79;94.82;99022.66;4886880;28;103537;-70
2023/02/17 00:43:44;;;;;;;;;36.00;27.33;;;;;0.80;95.01;99014.56;4889530;28;102178;-70
2023/02/17 00:46:12;;;;;;;;;39.67;29.33;;;;;0.83;94.05;99019.63;4895600;28;102417;-69
2023/02/17 00:48:39;;;;;;;;;33.00;30.00;;;;;0.86;93.75;99014.03;4891621;28;109176;-69
2023/02/17 00:51:07;;;;;;;;;37.00;27.00;;;;;0.87;93.85;99010.41;4892956;28;102424;-69
2023/02/17 00:53:34;;;;;;;;;41.67;35.67;;;;;0.88;94.00;99008.59;4891782;28;102812;-70
2023/02/17 00:56:02;;;;;;;;;29.00;21.33;;;;;0.88;94.03;98992.63;4891847;28;102125;-70
2023/02/17 00:58:30;;;;;;;;;37.67;30.67;;;;;0.87;94.11;98999.75;4893791;28;104198;-70
2023/02/17 01:00:57;;;;;;;;;47.67;34.67;;;;;0.89;93.51;98994.31;4895811;28;102581;-69
2023/02/17 01:03:25;;;;;;;;;36.67;28.00;;;;;0.88;94.00;99005.91;4891644;28;102134;-70
2023/02/17 01:05:53;;;;;;;;;37.67;32.67;;;;;0.92;93.64;99003.84;4893449;28;102296;-70
2023/02/17 01:08:22;;;;;;;;;40.33;31.67;;;;;0.94;94.00;98999.25;4893813;28;103999;-70
2023/02/17 01:10:50;;;;;;;;;36.67;30.33;;;;;0.94;93.75;98993.91;4896923;28;102166;-70
2023/02/17 01:13:18;;;;;;;;;38.67;34.33;;;;;0.97;93.29;98990.97;4876338;28;101987;-70
2023/02/17 01:15:48;;;;;;;;;37.67;30.67;;;;;0.98;92.98;98980.22;4892444;28;102077;-70
2023/02/17 01:18:17;;;;;;;;;35.33;24.67;;;;;1.01;93.25;98976.44;4875819;28;104264;-69
2023/02/17 01:20:44;;;;;;;;;33.00;26.33;;;;;0.92;93.14;98956.78;4896185;28;102366;-70
2023/02/17 01:23:12;;;;;;;;;32.00;21.67;;;;;1.05;93.17;98970.72;4897580;28;103215;-69
2023/02/17 01:25:42;;;;;;;;;29.67;24.67;;;;;1.09;92.56;98965.94;4896342;28;102195;-70
2023/02/17 01:28:16;;;;;;;;;34.67;27.67;;;;;1.09;92.94;98965.94;4893639;28;108923;-69
2023/02/17 01:30:43;;;;;;;;;23.33;20.00;;;;;1.12;92.68;98974.53;4894992;28;103659;-70
2023/02/17 01:33:10;;;;;;;;;33.67;30.00;;;;;1.11;92.51;98959.53;4895022;28;103984;-69
2023/02/17 01:35:37;;;;;;;;;28.33;24.67;;;;;1.15;92.39;98952.97;4896341;28;102002;-70
2023/02/17 01:38:04;;;;;;;;;32.00;24.00;;;;;1.17;92.55;98960.84;4895356;28;104123;-69
2023/02/17 01:40:31;;;;;;;;;28.67;23.67;;;;;1.19;91.98;98962.38;4888877;28;102140;-70
2023/02/17 01:42:58;;;;;;;;;17.67;16.00;;;;;1.21;92.35;98960.44;4891723;28;102105;-70
2023/02/17 01:45:40;;;;;;;;;28.00;24.33;;;;;1.24;91.78;98965.47;4892063;28;102257;-69
2023/02/17 01:48:15;;;;;;;;;22.67;20.00;;;;;1.25;91.44;98966.34;4874762;28;109074;-69
2023/02/17 01:50:48;;;;;;;;;27.33;23.33;;;;;1.29;91.24;98975.75;4875770;28;108038;-72
2023/02/17 01:53:24;;;;;;;;;21.00;20.33;;;;;1.28;91.61;98952.72;4867436;28;102383;-69
2023/02/17 01:55:53;;;;;;;;;19.33;16.67;;;;;1.28;91.04;98955.41;4868021;28;102048;-69
2023/02/17 01:58:23;;;;;;;;;28.33;21.00;;;;;1.25;90.96;98951.19;4870429;28;103980;-69
2023/02/17 02:00:52;;;;;;;;;26.00;19.00;;;;;1.28;91.02;98955.41;4882404;28;102239;-70
2023/02/17 02:03:19;;;;;;;;;27.33;23.67;;;;;1.20;90.70;98950.75;4873922;28;102121;-69
2023/02/17 02:05:46;;;;;;;;;36.67;24.67;;;;;1.26;90.91;98957.38;4881136;28;102162;-70
2023/02/17 02:08:23;;;;;;;;;44.33;30.00;;;;;1.30;91.37;98956.97;4873409;28;104327;-70
2023/02/17 02:11:10;;;;;;;;;45.00;36.00;;;;;1.38;91.50;98950.97;4872724;28;102920;-70
2023/02/17 02:14:03;;;;;;;;;37.00;32.33;;;;;1.46;90.49;98945.78;4872445;28;102204;-70
2023/02/17 02:17:05;;;;;;;;;33.67;27.00;;;;;1.55;90.27;98958.31;4876684;28;102410;-70
2023/02/17 02:20:05;;;;;;;;;30.33;24.33;;;;;1.62;89.28;98959.44;4868645;28;107651;-70
2023/02/17 02:23:03;;;;;;;;;31.67;25.67;;;;;1.69;89.66;98952.59;4873491;28;103016;-70
2023/02/17 02:26:05;;;;;;;;;35.33;28.00;;;;;1.75;88.84;98952.06;4869638;28;102821;-70
2023/02/17 02:28:51;;;;;;;;;35.00;28.67;;;;;1.79;88.50;98941.97;4881165;28;102566;-70
2023/02/17 02:31:56;;;;;;;;;29.00;24.67;;;;;1.84;88.20;98946.88;4874219;28;108682;-70
2023/02/17 02:34:32;;;;;;;;;30.00;24.33;;;;;1.85;88.48;98941.38;4878313;28;102491;-69
2023/02/17 02:37:03;;;;;;;;;33.67;28.33;;;;;1.89;88.77;98941.97;4891059;28;102100;-70
2023/02/17 02:39:36;;;;;;;;;41.67;33.00;;;;;1.93;87.64;98941.56;4874741;28;102152;-70
2023/02/17 02:42:11;;;;;;;;;36.33;26.00;;;;;1.97;87.31;98936.78;4891962;28;104027;-70
2023/02/17 02:44:38;;;;;;;;;31.00;24.67;;;;;1.96;87.44;98935.09;4889345;28;102113;-70
2023/02/17 02:47:26;;;;;;;;;34.00;26.67;;;;;1.98;87.02;98927.81;4894432;28;104027;-70
2023/02/17 02:49:54;;;;;;;;;33.00;26.67;;;;;1.99;87.48;98929.47;4881156;28;102259;-70
2023/02/17 02:52:35;;;;;;;;;26.67;25.00;;;;;1.99;86.95;98924.16;4892544;28;103854;-70
2023/02/17 02:55:24;;;;;;;;;35.00;27.00;;;;;2.00;86.96;98928.50;4867913;28;102250;-69
2023/02/17 02:58:02;;;;;;;;;29.67;25.67;;;;;2.02;87.28;98929.22;4890581;28;102456;-70
2023/02/17 03:00:42;;;;;;;;;23.67;19.00;;;;;2.04;86.97;98929.91;4894292;28;102625;-69
2023/02/17 03:03:40;;;;;;;;;21.25;17.75;;;;;2.04;86.40;98920.09;4894325;28;108641;-69
2023/02/17 03:06:36;;;;;;;;;21.75;18.25;;;;;2.07;87.12;98926.97;4890327;28;103048;-69
2023/02/17 03:09:30;;;;;;;;;22.25;20.50;;;;;2.09;86.40;98925.00;4889592;28;102108;-69
2023/02/17 03:11:57;;;;;;;;;23.75;16.00;;;;;2.10;86.21;98922.19;4891952;28;102575;-70
2023/02/17 03:14:26;;;;;;;;;15.50;14.00;;;;;2.09;86.16;98911.66;4892927;28;103951;-70
2023/02/17 03:16:54;;;;;;;;;15.75;14.50;;;;;2.08;86.76;98916.16;4894920;28;102275;-70
2023/02/17 03:19:23;;;;;;;;;10.75;10.75;;;;;2.06;86.66;98910.13;4888723;28;102384;-70
2023/02/17 03:22:16;;;;;;;;;16.00;14.50;;;;;2.05;86.36;98907.59;4895718;28;102390;-70
2023/02/17 03:24:43;;;;;;;;;19.75;12.50;;;;;2.03;86.08;98904.22;4885677;28;108955;-70
2023/02/17 03:27:10;;;;;;;;;15.50;14.25;;;;;2.00;86.92;98896.50;4896623;28;101980;-70
2023/02/17 03:29:37;;;;;;;;;17.00;14.00;;;;;2.01;86.76;98900.88;4884940;28;102216;-70
2023/02/17 03:32:05;;;;;;;;;18.50;16.00;;;;;2.01;86.79;98896.38;4894477;28;102464;-70
2023/02/17 03:34:32;;;;;;;;;20.50;14.00;;;;;2.01;87.12;98898.19;4894006;28;104111;-70
2023/02/17 03:36:59;;;;;;;;;22.50;16.50;;;;;2.03;87.21;98890.88;4893313;28;102413;-70
2023/02/17 03:39:26;;;;;;;;;17.50;14.75;;;;;2.04;86.72;98893.41;4893498;28;102076;-70
2023/02/17 03:41:53;;;;;;;;;27.25;19.50;;;;;2.05;87.24;98896.94;4896038;28;102184;-70
2023/02/17 03:44:20;;;;;;;;;19.00;18.00;;;;;2.03;86.50;98898.88;4894396;28;103983;-70
2023/02/17 03:46:47;;;;;;;;;23.00;17.25;;;;;2.08;86.87;98910.81;4894154;28;102317;-70
2023/02/17 03:49:14;;;;;;;;;18.00;17.25;;;;;2.07;86.61;98910.97;4894644;28;102353;-70
2023/02/17 03:51:41;;;;;;;;;18.50;16.00;;;;;2.08;87.20;98912.63;4897409;28;102402;-70
2023/02/17 03:54:08;;;;;;;;;20.25;15.00;;;;;2.09;87.16;98915.19;4892567;28;109953;-71
2023/02/17 03:56:35;;;;;;;;;22.00;16.50;;;;;2.10;87.22;98910.69;4892814;28;102238;-70
2023/02/17 03:59:03;;;;;;;;;20.00;14.75;;;;;2.09;87.01;98903.66;4892763;28;102108;-70
2023/02/17 04:01:31;;;;;;;;;29.25;22.75;;;;;2.11;87.02;98901.72;4893293;28;102226;-70
2023/02/17 04:03:58;;;;;;;;;26.75;21.00;;;;;2.15;86.85;98905.78;4894345;28;103785;-70
2023/02/17 04:06:25;;;;;;;;;32.75;21.75;;;;;2.19;87.03;98896.50;4894099;28;102508;-70
2023/02/17 04:08:52;;;;;;;;;25.33;23.00;;;;;2.08;86.21;98880.63;4891972;28;102176;-70
2023/02/17 04:11:19;;;;;;;;;24.50;20.00;;;;;2.26;85.87;98900.28;4892942;28;102458;-70
2023/02/17 04:13:46;;;;;;;;;33.75;28.50;;;;;2.29;85.94;98886.69;4891992;28;104178;-70
2023/02/17 04:16:13;;;;;;;;;29.00;22.67;;;;;2.34;85.27;98880.91;4892361;28;102331;-72
2023/02/17 04:18:40;;;;;;;;;29.00;21.75;;;;;2.38;85.65;98888.50;4894283;28;102252;-70
2023/02/17 04:21:07;;;;;;;;;21.00;18.75;;;;;2.39;86.25;98871.47;4893412;28;102921;-70
2023/02/17 04:23:35;;;;;;;;;21.25;15.75;;;;;2.42;86.10;98873.03;4891764;28;104152;-69
2023/02/17 04:26:07;;;;;;;;;23.00;16.00;;;;;2.45;85.15;98889.59;4892106;28;102174;-69
2023/02/17 04:28:38;;;;;;;;;22.25;20.00;;;;;2.48;85.59;98883.97;4890727;28;102213;-70
2023/02/17 04:31:05;;;;;;;;;23.75;18.25;;;;;2.51;85.78;98888.19;4894307;28;102542;-70
2023/02/17 04:33:33;;;;;;;;;22.75;19.00;;;;;2.53;84.73;98879.03;4891748;28;104018;-70
2023/02/17 04:36:00;;;;;;;;;35.67;24.67;;;;;2.57;85.10;98885.78;4892891;28;102280;-70
2023/02/17 04:38:29;;;;;;;;;21.75;20.00;;;;;2.59;84.68;98886.50;4890944;28;102110;-69
2023/02/17 04:40:57;;;;;;;;;21.25;18.00;;;;;2.56;84.55;98870.78;4893902;28;102369;-70
2023/02/17 04:43:26;;;;;;;;;15.00;12.25;;;;;2.66;85.05;98881.41;4892909;28;104182;-70
2023/02/17 04:45:54;;;;;;;;;30.00;26.75;;;;;2.66;84.25;98882.25;4893227;28;102111;-70
2023/02/17 04:48:21;;;;;;;;;24.25;18.75;;;;;2.71;84.92;98884.47;4879792;28;102133;-71
2023/02/17 04:50:49;;;;;;;;;19.50;18.00;;;;;2.73;84.98;98871.00;4878299;28;102865;-71
2023/02/17 04:53:16;;;;;;;;;31.50;23.75;;;;;2.75;84.02;98871.72;4888570;28;104019;-71
2023/02/17 04:55:43;;;;;;;;;27.50;24.25;;;;;2.75;84.98;98863.69;4890538;28;109802;-73
2023/02/17 04:58:10;;;;;;;;;24.00;19.25;;;;;2.78;84.80;98858.06;4891689;28;102378;-70
2023/02/17 05:00:37;;;;;;;;;31.00;25.25;;;;;2.82;84.73;98867.44;4893352;28;102421;-70
2023/02/17 05:03:04;;;;;;;;;28.00;22.00;;;;;2.85;84.00;98868.00;4890373;28;104011;-70
2023/02/17 05:05:31;;;;;;;;;28.50;24.00;;;;;2.84;84.23;98857.44;4891221;28;102230;-71
2023/02/17 05:07:58;;;;;;;;;28.25;26.25;;;;;2.87;84.47;98863.38;4889056;28;102286;-71
2023/02/17 05:10:25;;;;;;;;;37.75;27.00;;;;;2.90;84.25;98859.53;4893392;28;102148;-71
2023/02/17 05:12:52;;;;;;;;;25.25;20.50;;;;;2.91;84.80;98858.56;4865464;28;104018;-71
2023/02/17 05:15:19;;;;;;;;;30.00;28.00;;;;;2.92;84.51;98846.91;4886933;28;103397;-69
2023/02/17 05:17:46;;;;;;;;;26.75;24.00;;;;;2.87;84.00;98833.16;4891008;28;102143;-70
2023/02/17 05:20:13;;;;;;;;;31.25;25.75;;;;;2.94;83.99;98843.09;4890155;28;103440;-72
2023/02/17 05:22:40;;;;;;;;;29.75;24.75;;;;;2.99;83.67;98839.97;4891142;28;104366;-69
2023/02/17 05:25:07;;;;;;;;;29.50;22.75;;;;;3.03;83.36;98836.00;4887988;28;102580;-70
2023/02/17 05:27:34;;;;;;;;;30.50;26.50;;;;;3.00;83.83;98825.63;4889323;28;103802;-70
2023/02/17 05:30:02;;;;;;;;;27.25;20.50;;;;;3.06;83.97;98825.06;4891711;28;102489;-69
2023/02/17 05:32:29;;;;;;;;;26.75;20.00;;;;;3.06;84.26;98820.53;4889088;28;103978;-69
2023/02/17 05:34:56;;;;;;;;;27.50;19.50;;;;;3.12;84.80;98832.47;4868664;28;102354;-71
2023/02/17 05:37:23;;;;;;;;;34.75;28.75;;;;;3.14;84.14;98826.00;4889210;28;102598;-71
2023/02/17 05:39:50;;;;;;;;;25.50;22.75;;;;;3.19;83.80;98830.03;4873144;28;102235;-71
2023/02/17 05:42:17;;;;;;;;;21.00;16.33;;;;;3.22;84.12;98835.94;4889757;28;104190;-70
2023/02/17 05:44:44;;;;;;;;;19.50;17.50;;;;;3.24;83.99;98833.97;4886866;28;102474;-72
2023/02/17 05:47:11;;;;;;;;;21.00;16.25;;;;;3.25;83.50;98830.28;4905523;28;102228;-70
2023/02/17 05:49:38;;;;;;;;;32.50;25.00;;;;;3.22;83.81;98833.25;4891882;28;102679;-71
2023/02/17 05:52:05;;;;;;;;;32.50;27.25;;;;;3.26;83.96;98825.78;4906349;28;103957;-70
2023/02/17 05:54:32;;;;;;;;;33.75;29.75;;;;;3.27;83.43;98843.50;4893780;28;102038;-70
2023/02/17 05:56:59;;;;;;;;;31.00;27.25;;;;;3.28;83.70;98843.34;4892201;28;102393;-70
2023/02/17 05:59:26;;;;;;;;;43.00;37.00;;;;;3.27;84.11;98836.31;4895511;28;102332;-70
2023/02/17 06:01:54;;;;;;;;;42.67;36.67;;;;;3.27;83.79;98833.66;4893679;28;104289;-70
2023/02/17 06:04:21;;;;;;;;;38.00;33.00;;;;;3.29;84.04;98833.50;4884973;28;102390;-71
2023/02/17 06:06:48;;;;;;;;;35.00;29.50;;;;;3.30;83.91;98827.16;4892622;28;102219;-71
2023/02/17 06:09:15;;;;;;;;;25.00;20.25;;;;;3.31;84.25;98831.50;4892704;28;102259;-70
2023/02/17 06:11:42;;;;;;;;;22.75;19.50;;;;;3.30;83.72;98832.50;4896629;28;104065;-69
2023/02/17 06:14:09;;;;;;;;;30.50;22.25;;;;;3.27;84.31;98822.97;4889798;28;102411;-70
2023/02/17 06:16:36;;;;;;;;;29.75;25.00;;;;;3.22;84.00;98809.22;4891947;28;102275;-70
2023/02/17 06:19:04;;;;;;;;;33.75;29.25;;;;;3.31;84.27;98826.16;4894682;28;102228;-70
2023/02/17 06:21:31;;;;;;;;;31.50;23.50;;;;;3.32;83.69;98822.50;4894999;28;104001;-70
2023/02/17 06:23:58;;;;;;;;;28.50;22.50;;;;;3.31;83.57;98816.31;4871668;28;102408;-70
2023/02/17 06:26:25;;;;;;;;;30.50;25.75;;;;;3.33;83.71;98825.00;4894656;28;102227;-70
2023/02/17 06:28:52;;;;;;;;;36.25;28.00;;;;;3.32;83.89;98817.16;4894398;28;102302;-70
2023/02/17 06:31:19;;;;;;;;;39.50;32.50;;;;;3.34;83.93;98820.50;4874261;28;111078;-70
2023/02/17 06:33:46;;;;;;;;;28.50;25.75;;;;;3.36;83.59;98814.03;4894166;28;102494;-71
2023/02/17 06:36:13;;;;;;;;;35.50;27.25;;;;;3.40;84.07;98818.09;4894874;28;102089;-70
2023/02/17 06:38:40;;;;;;;;;35.50;27.50;;;;;3.43;83.71;98820.47;4895192;28;102359;-71
2023/02/17 06:41:07;;;;;;;;;33.00;26.25;;;;;3.45;83.26;98821.16;4894371;28;104161;-70
2023/02/17 06:43:34;;;;;;;;;36.25;24.00;;;;;3.47;83.13;98808.47;4894289;28;102479;-69
2023/02/17 06:46:01;;;;;;;;;27.75;24.75;;;;;3.53;83.98;98813.22;4896106;28;102413;-69
2023/02/17 06:48:31;;;;;;;;;33.75;29.00;;;;;3.57;83.23;98814.59;4894374;28;102391;-69
2023/02/17 06:51:00;;;;;;;;;42.00;33.50;;;;;3.62;83.53;98821.31;4892729;28;104178;-69
2023/02/17 06:53:27;;;;;;;;;51.33;40.67;;;;;3.65;83.55;98813.81;4895709;28;102509;-69
2023/02/17 06:55:54;;;;;;;;;70.33;52.00;;;;;3.61;83.19;98793.75;4893628;28;102442;-69
2023/02/17 06:58:21;;;;;;;;;66.33;49.33;;;;;3.81;82.71;98818.50;4894262;28;102375;-70
2023/02/17 07:00:47;;;;;;;;;57.67;47.00;;;;;3.79;82.35;98799.94;4892858;28;103880;-70
2023/02/17 07:03:14;;;;;;;;;73.67;50.00;;;;;3.92;82.18;98807.56;4894800;28;102764;-70
2023/02/17 07:05:41;;;;;;;;;57.33;42.00;;;;;3.98;81.96;98790.91;4896908;28;102721;-70
2023/02/17 07:08:08;;;;;;;;;70.33;50.33;;;;;4.02;81.65;98794.94;4895388;28;102485;-70
2023/02/17 07:10:36;;;;;;;;;73.33;50.00;;;;;4.10;81.84;98794.19;4893305;28;103807;-70
2023/02/17 07:13:03;;;;;;;;;77.67;54.67;;;;;4.19;81.30;98790.56;4891901;28;102473;-70
2023/02/17 07:15:30;;;;;;;;;77.00;54.67;;;;;4.25;80.59;98788.09;4891911;28;102459;-70
2023/02/17 07:17:57;;;;;;;;;74.00;53.67;;;;;4.34;80.70;98781.81;4894236;28;102073;-70
2023/02/17 07:20:24;;;;;;;;;76.33;50.67;;;;;4.41;80.35;98782.84;4890597;28;103995;-70
2023/02/17 07:22:51;;;;;;;;;54.33;40.67;;;;;4.47;80.11;98792.94;4893103;28;102049;-70
2023/02/17 07:25:18;;;;;;;;;60.33;43.00;;;;;4.54;79.78;98798.50;4892580;28;102280;-71
2023/02/17 07:27:45;;;;;;;;;47.50;40.00;;;;;4.60;79.72;98797.84;4894497;28;102415;-70
2023/02/17 07:30:12;;;;;;;;;42.50;30.25;;;;;4.71;79.48;98797.59;4896119;28;104042;-71
2023/02/17 07:32:39;;;;;;;;;45.75;38.00;;;;;4.72;79.21;98801.13;4882952;28;102542;-71
2023/02/17 07:35:06;;;;;;;;;50.75;37.00;;;;;4.77;78.64;98799.63;4884950;28;102659;-70
2023/02/17 07:37:34;;;;;;;;;48.67;40.00;;;;;4.77;79.07;98799.63;4891676;28;102525;-70
2023/02/17 07:40:00;;;;;;;;;40.75;36.25;;;;;4.87;78.57;98803.03;4890272;28;104158;-70
2023/02/17 07:42:28;;;;;;;;;43.75;36.75;;;;;4.89;79.06;98797.50;4874554;28;102682;-70
2023/02/17 07:44:55;;;;;;;;;48.75;38.25;;;;;4.92;78.50;98802.53;4892416;28;102888;-69
2023/02/17 07:47:21;;;;;;;;;36.50;30.00;;;;;5.06;78.62;98791.22;4889894;28;102975;-70
2023/02/17 07:49:48;;;;;;;;;34.00;25.75;;;;;5.11;77.83;98786.22;4892982;28;104035;-71
2023/02/17 07:52:17;;;;;;;;;38.25;29.75;;;;;5.17;78.08;98785.59;4892281;28;102019;-71
2023/02/17 07:54:44;;;;;;;;;39.25;31.25;;;;;5.25;78.03;98782.91;4893253;28;102364;-70
2023/02/17 07:57:11;;;;;;;;;41.75;31.75;;;;;5.32;77.55;98783.94;4894471;28;102133;-70
2023/02/17 07:59:38;;;;;;;;;32.25;26.75;;;;;5.39;77.32;98793.03;4890652;28;104027;-70
2023/02/17 08:02:06;;;;;;;;;50.75;39.00;;;;;5.34;77.48;98787.31;4891459;28;102148;-70
2023/02/17 08:04:33;;;;;;;;;56.25;39.25;;;;;5.36;77.16;98771.03;4892751;28;102310;-70
2023/02/17 08:07:00;;;;;;;;;46.50;35.50;;;;;5.46;76.97;98777.09;4892227;28;102422;-70
2023/02/17 08:15:07;;;;;;;;;60.00;44.33;;;;;5.55;76.60;98757.34;4890980;28;102581;-70
2023/02/17 08:17:34;;;;;;;;;52.00;41.00;;;;;5.61;76.10;98758.53;4894353;28;102195;-70
2023/02/17 08:20:01;;;;;;;;;50.00;38.00;;;;;5.65;76.20;98758.03;4892009;28;104024;-71
2023/02/17 08:22:35;;;;;;;;;45.50;37.50;;;;;5.67;75.28;98750.63;4892613;28;102146;-69
2023/02/17 08:25:04;;;;;;;;;45.75;36.25;;;;;5.73;75.67;98763.41;4892134;28;102550;-70
2023/02/17 08:27:32;;;;;;;;;36.75;30.50;;;;;5.83;75.36;98760.56;4888889;28;102408;-71
2023/02/17 08:29:59;;;;;;;;;32.00;27.75;;;;;5.86;74.91;98757.53;4890916;28;104004;-70
2023/02/17 08:32:26;;;;;;;;;54.75;40.00;;;;;5.80;75.18;98760.91;4890894;28;104699;-70
2023/02/17 08:34:56;;;;;;;;;44.25;37.25;;;;;5.88;75.04;98760.09;4886206;28;102240;-70
2023/02/17 08:37:24;;;;;;;;;37.75;34.75;;;;;5.93;74.98;98758.59;4872652;28;102916;-70
2023/02/17 08:39:51;;;;;;;;;39.00;29.75;;;;;5.97;75.01;98761.75;4890293;28;104015;-70
2023/02/17 08:42:18;;;;;;;;;41.25;34.00;;;;;5.94;74.84;98767.47;4890212;28;102448;-70
2023/02/17 08:44:45;;;;;;;;;39.00;31.50;;;;;5.92;75.57;98772.16;4892636;28;102380;-70
2023/02/17 08:47:12;;;;;;;;;33.25;28.25;;;;;5.96;75.67;98771.66;4889973;28;103033;-70
2023/02/17 08:49:39;;;;;;;;;33.25;25.75;;;;;5.97;75.60;98765.28;4889132;28;104024;-71
2023/02/17 08:52:07;;;;;;;;;37.75;28.00;;;;;5.98;76.59;98761.59;4890436;28;109625;-71
2023/02/17 08:54:34;;;;;;;;;31.25;27.75;;;;;5.92;76.38;98751.53;4889065;28;102097;-71
2023/02/17 08:57:01;;;;;;;;;25.50;22.75;;;;;5.95;78.46;98756.56;4889963;28;102555;-70
2023/02/17 08:59:28;;;;;;;;;44.50;38.25;;;;;5.83;80.29;98753.34;4887833;28;104150;-70
2023/02/17 09:01:55;;;;;;;;;36.50;29.50;;;;;5.93;81.63;98755.91;4890409;28;102351;-71
2023/02/17 09:04:23;;;;;;;;;32.75;29.00;;;;;5.93;81.81;98750.53;4887905;28;102130;-71
2023/02/17 09:06:52;;;;;;;;;31.50;25.25;;;;;5.99;82.52;98749.03;4892648;28;102068;-70
2023/02/17 09:09:21;;;;;;;;;35.00;33.75;;;;;5.95;82.04;98743.13;4892997;28;104003;-71
2023/02/17 09:11:48;;;;;;;;;33.50;28.25;;;;;5.90;81.76;98724.00;4890787;28;102371;-71
2023/02/17 09:14:15;;;;;;;;;31.25;27.00;;;;;6.05;82.38;98746.50;4896675;28;102365;-71
2023/02/17 09:16:42;;;;;;;;;31.75;26.75;;;;;6.03;81.59;98756.56;4893115;28;101971;-71
2023/02/17 09:19:09;;;;;;;;;33.00;28.50;;;;;6.01;81.81;98753.22;4892250;28;104011;-71
2023/02/17 09:21:36;;;;;;;;;35.50;30.00;;;;;5.98;82.06;98750.88;4896359;28;102422;-71
2023/02/17 09:24:04;;;;;;;;;47.25;36.50;;;;;5.89;82.19;98733.09;4895233;28;102336;-71
2023/02/17 09:26:33;;;;;;;;;39.00;33.00;;;;;5.98;81.62;98742.81;4896016;28;102487;-71
2023/02/17 09:29:02;;;;;;;;;42.00;36.00;;;;;5.98;81.49;98741.97;4895407;28;104176;-70
2023/02/17 09:31:30;;;;;;;;;37.00;31.50;;;;;6.06;81.95;98740.13;4886846;28;102469;-70
2023/02/17 09:33:58;;;;;;;;;33.25;28.50;;;;;6.16;81.17;98724.69;4895473;28;102393;-70
2023/02/17 09:36:29;;;;;;;;;33.00;28.75;;;;;6.21;81.00;98726.84;4893874;28;102609;-69
2023/02/17 09:38:56;;;;;;;;;37.25;29.25;;;;;6.28;82.09;98723.31;4895773;28;103990;-70
2023/02/17 09:41:26;;;;;;;;;37.75;35.25;;;;;6.27;79.69;98727.00;4894794;28;102150;-71
2023/02/17 09:43:54;;;;;;;;;36.50;32.00;;;;;6.27;80.81;98731.53;4897881;28;103732;-70
2023/02/17 09:46:46;;;;;;;;;46.00;36.75;;;;;6.14;80.76;98707.06;4896869;28;102197;-71
2023/02/17 09:49:35;;;;;;;;;39.25;32.75;;;;;6.38;80.87;98723.13;4887366;28;108886;-71
2023/02/17 09:52:37;;;;;;;;;29.00;25.25;;;;;6.49;81.40;98720.06;4895469;28;102190;-71
2023/02/17 09:55:12;;;;;;;;;35.00;29.25;;;;;6.49;79.92;98721.91;4895434;28;102026;-70
2023/02/17 09:57:50;;;;;;;;;32.25;28.25;;;;;6.54;79.75;98716.84;4885190;28;102427;-70
2023/02/17 10:00:29;;;;;;;;;34.50;28.50;;;;;6.49;80.43;98697.72;4892807;28;108756;-70
2023/02/17 10:03:32;;;;;;;;;46.25;39.25;;;;;6.43;81.44;98715.41;4896409;28;102189;-70
2023/02/17 10:06:05;;;;;;;;;43.00;34.25;;;;;6.37;81.35;98720.59;4889871;28;101986;-71
2023/02/17 10:08:53;;;;;;;;;32.25;26.00;;;;;6.43;81.18;98730.66;4891940;28;101844;-71
2023/02/17 10:11:28;;;;;;;;;40.50;32.50;;;;;6.42;82.70;98720.94;4892296;28;109019;-71
2023/02/17 10:14:01;;;;;;;;;40.50;32.75;;;;;6.33;82.54;98725.47;4894501;28;102276;-71
2023/02/17 10:16:37;;;;;;;;;27.00;22.75;;;;;6.24;83.40;98708.56;4896355;28;102049;-71
2023/02/17 10:19:33;;;;;;;;;45.50;34.50;;;;;6.08;84.70;98721.97;4895932;28;102364;-71
2023/02/17 10:22:03;;;;;;;;;36.75;31.00;;;;;6.09;84.25;98718.28;4892685;28;108576;-71
2023/02/17 10:24:30;;;;;;;;;41.75;36.25;;;;;5.95;85.64;98726.19;4894331;28;102167;-70
2023/02/17 10:27:24;;;;;;;;;39.75;34.50;;;;;5.93;85.07;98712.97;4878511;28;102432;-70
2023/02/17 10:30:25;;;;;;;;;35.75;29.25;;;;;5.97;84.86;98718.81;4894775;28;102056;-71
2023/02/17 10:33:00;;;;;;;;;44.25;35.75;;;;;5.94;85.49;98706.59;4889207;28;108480;-70
2023/02/17 10:35:54;;;;;;;;;36.25;31.50;;;;;5.95;84.74;98716.28;4877126;28;102424;-69
2023/02/17 10:39:01;;;;;;;;;44.25;37.00;;;;;5.92;84.12;98692.50;4876706;28;102424;-70
2023/02/17 10:41:36;;;;;;;;;43.75;38.75;;;;;6.00;84.66;98691.63;4884225;28;104699;-71
2023/02/17 10:44:19;;;;;;;;;37.50;34.25;;;;;6.03;84.79;98684.09;4887894;28;105122;-71
2023/02/17 10:46:47;;;;;;;;;44.25;36.75;;;;;6.01;83.82;98683.44;4886569;28;102239;-70
2023/02/17 10:49:28;;;;;;;;;43.00;36.75;;;;;6.11;83.53;98689.47;4893297;28;102430;-72
2023/02/17 10:52:01;;;;;;;;;41.50;36.75;;;;;6.14;84.19;98688.25;4887488;28;102105;-69
2023/02/17 10:54:37;;;;;;;;;44.50;36.50;;;;;6.27;83.39;98683.19;4888020;28;104048;-72
2023/02/17 10:57:09;;;;;;;;;29.25;29.25;;;;;6.35;83.35;98669.75;4892917;28;102903;-70
2023/02/17 10:59:43;;;;;;;;;42.25;35.25;;;;;6.34;82.83;98660.03;4890811;28;102232;-71
2023/02/17 11:02:34;;;;;;;;;49.75;38.00;;;;;6.32;82.86;98655.81;4895236;28;102215;-70
2023/02/17 11:05:01;;;;;;;;;37.00;34.25;;;;;6.44;82.83;98649.09;4891740;28;108779;-70
2023/02/17 11:07:36;;;;;;;;;42.50;37.25;;;;;6.34;82.72;98645.75;4871835;28;102273;-71
2023/02/17 11:10:19;;;;;;;;;38.00;32.25;;;;;6.35;81.87;98637.50;4889779;28;102091;-70
2023/02/17 11:12:48;;;;;;;;;28.75;23.00;;;;;6.46;82.05;98642.53;4893622;28;102277;-71
2023/02/17 11:15:25;;;;;;;;;40.75;31.50;;;;;6.49;82.27;98623.38;4894407;28;108536;-71
2023/02/17 11:17:53;;;;;;;;;39.00;32.75;;;;;6.46;83.32;98606.78;4892521;28;102234;-70
2023/02/17 11:20:20;;;;;;;;;37.75;31.25;;;;;6.53;82.63;98613.94;4893353;28;102106;-71
2023/02/17 11:22:59;;;;;;;;;39.75;35.25;;;;;6.58;82.15;98605.34;4898765;28;102439;-71
2023/02/17 11:25:33;;;;;;;;;34.25;28.75;;;;;6.64;82.19;98610.03;4891285;28;108655;-71
2023/02/17 11:28:03;;;;;;;;;41.75;35.00;;;;;6.71;81.67;98598.41;4893128;28;102350;-71
2023/02/17 11:30:33;;;;;;;;;46.25;35.75;;;;;6.76;81.92;98603.25;4892923;28;102430;-71
2023/02/17 11:33:35;;;;;;;;;45.50;36.50;;;;;6.67;80.77;98598.94;4896607;28;102422;-70
2023/02/17 11:36:04;;;;;;;;;34.25;32.50;;;;;6.76;81.52;98586.28;4877257;28;108668;-70
2023/02/17 11:38:37;;;;;;;;;43.50;37.75;;;;;6.83;80.08;98582.72;4894937;28;102302;-71
2023/02/17 11:41:06;;;;;;;;;39.00;33.00;;;;;6.77;80.43;98583.44;4892958;28;102373;-71